Weerstation
Sluispark-LeuvenLeuven-Sluispark



Het weer levert geen direct gevaar op.    Er zijn geen waarschuwingen afgegeven.

Nabijgelegen vliegvelden - METAR rapporten

   
EBBR - Wilsele bij Leuven
Gewijzigd: 07-04-2020 02:20
Helder    Wind: WZW 7.4 km/h
Helder
Wind: Wind: WZW 7.4 km/h
Temperatuur: 10°C
Voelt als: 9°C
Dauwpunt: 8°C
Vochtigheid: 88%
Barometer: 1028 hPa
Zicht: meer dan 10 km
Bewolking: Helder
EBBR 070020Z 24004KT CAVOK 10/08 Q1028 NOSIG
EBAW - Antwerp
Gewijzigd: 07-04-2020 02:20
Helder    Wind: Westen 5.6 km/h
Helder
Wind: Wind: Westen 5.6 km/h
Temperatuur: 10°C
Voelt als: 9°C
Dauwpunt: 8°C
Vochtigheid: 88%
Barometer: 1028 hPa
Zicht: meer dan 10 km
Bewolking: Helder
EBAW 070020Z AUTO 28003KT CAVOK 10/08 Q1028
EBLG - Li├Ęge
Gewijzigd: 07-04-2020 02:20
Helder    Wind: varieert 3.7 km/h
Helder
Wind: Wind: varieert 3.7 km/h
Temperatuur: 12°C
Dauwpunt: 9°C
Vochtigheid: 82%
Barometer: 1028 hPa
Zicht: meer dan 10 km
Bewolking: Helder
EBLG 070020Z VRB02KT CAVOK 12/09 Q1028 NOSIG
EBCV - Mons/Bergen
Gewijzigd: 07-04-2020 02:40
Nevel, Helder    Wind: Zuiden 9.3 km/h
Nevel, Helder
Wind: Wind: Zuiden 9.3 km/h
Temperatuur: 7°C
Voelt als: 5°C
Dauwpunt: 6°C
Vochtigheid: 93%
Barometer: 1028 hPa
Bewolking: Helder
Zicht: 1 km
Bewolking: Helder
EBCV 070040Z AUTO 19005KT 0450 BR NCD 07/06 Q1028 RED
EHBK - Maastricht
Gewijzigd: 07-04-2020 02:25
Gedeeltelijk bewolkt    Wind: Westen 7.4 km/h
Gedeeltelijk bewolkt
Wind: Wind: Westen 7.4 km/h
Temperatuur: 13°C
Dauwpunt: 9°C
Vochtigheid: 77%
Barometer: 1027 hPa
Bewolking: Gedeeltelijk bewolkt
Zicht: meer dan 10 km
Bewolking: Gedeeltelijk bewolkt
EHBK 070025Z AUTO 27004KT 230V300 9999 NSC 13/09 Q1027
ELLX - Luxemburg
Gewijzigd: 07-04-2020 02:20
Helder    Wind: Noorden 18.5 km/h
Helder
Wind: Wind: Noorden 18.5 km/h
Temperatuur: 13°C
Dauwpunt: 6°C
Vochtigheid: 63%
Barometer: 1027 hPa
Bewolking: Helder
Zicht: meer dan 10 km
Bewolking: Helder
ELLX 070020Z AUTO 36010KT 9999 NCD 13/06 Q1027 NOSIG
EBOS - Oostende
Gewijzigd: 07-04-2020 02:20
Helder    Wind: Zuiden 5.6 km/h
Helder
Wind: Wind: Zuiden 5.6 km/h
Temperatuur: 5°C
Voelt als: 4°C
Dauwpunt: 4°C
Vochtigheid: 93%
Barometer: 1028 hPa
Zicht: meer dan 10 km
Bewolking: Helder
EBOS 070020Z 18003KT CAVOK 05/04 Q1028 NOSIG
  

Script ontwikkeld door  Saratoga-weather.org Aangepast voor de template door  Weerstation Leuven

U vindt ons ook hier:

UK Metoffice

WeatherCloud

European Weather Network

Weather Underground

Benelux Weather Network

AWEKAS

WeatherlinkIP

HAMweather, WeatherForYou, PWS Weather

Het Weer Aktueel

Apparatuur in gebruik:

Weer-station
Davis VP2 weatherstation

Weer-programma
Meteobridge

Weer-computer
D-Link DIR-505

Webleverancier
Robohost

Davis VP2 weatherstation

Meteobridge

D-Link DIR-505

Robohost